Time;durP1;ratioP1;P1;durP2;ratioP2;P2;SDS_P1;SDS_P2;PMS_P1;PMS_P2;Temp;Humidity;BMP_temperature;BMP_pressure;BME280_temperature;BME280_humidity;BME280_pressure;Samples;Min_cycle;Max_cycle;Signal;HPM_P1;HPM_P2
2021/03/15 00:00:55;;;;;;;33.43;20.73;;;;;;;;;;4950141;29;20211;-88
2021/03/15 00:03:22;;;;;;;38.27;22.60;;;;;;;;;;4969624;28;20217;-88
2021/03/15 00:05:47;;;;;;;46.30;29.47;;;;;;;;;;4943812;29;20622;-90
2021/03/15 00:08:12;;;;;;;43.00;26.23;;;;;;;;;;4955399;28;20243;-90
2021/03/15 00:10:38;;;;;;;41.33;25.30;;;;;;;;;;4955575;29;20266;-90
2021/03/15 00:13:05;;;;;;;32.23;19.97;;;;;;;;;;4956320;28;20181;-90
2021/03/15 00:15:31;;;;;;;37.00;20.83;;;;;;;;;;4959658;28;20179;-90
2021/03/15 00:17:56;;;;;;;36.23;19.67;;;;;;;;;;4959357;28;20242;-90
2021/03/15 00:20:23;;;;;;;42.33;23.37;;;;;;;;;;4942056;29;20655;-89
2021/03/15 00:22:49;;;;;;;41.20;22.97;;;;;;;;;;4942170;29;20182;-89
2021/03/15 00:25:15;;;;;;;55.80;31.27;;;;;;;;;;4941927;29;20179;-90
2021/03/15 00:27:41;;;;;;;56.07;30.60;;;;;;;;;;4958985;28;20218;-90
2021/03/15 00:30:07;;;;;;;56.90;31.00;;;;;;;;;;4959396;29;20497;-89
2021/03/15 00:32:33;;;;;;;45.47;26.20;;;;;;;;;;4959371;28;20186;-89
2021/03/15 00:34:58;;;;;;;48.20;26.80;;;;;;;;;;4941314;29;20179;-90
2021/03/15 00:37:24;;;;;;;51.57;30.50;;;;;;;;;;4958693;28;20182;-90
2021/03/15 00:39:50;;;;;;;60.90;34.50;;;;;;;;;;4958670;29;20179;-90
2021/03/15 00:42:17;;;;;;;50.87;32.73;;;;;;;;;;4959176;28;20210;-89
2021/03/15 00:44:42;;;;;;;61.40;30.70;;;;;;;;;;4941492;29;20175;-90
2021/03/15 00:47:08;;;;;;;52.83;31.23;;;;;;;;;;4941603;29;20191;-89
2021/03/15 00:49:33;;;;;;;43.87;24.67;;;;;;;;;;4941756;29;20316;-89
2021/03/15 00:52:00;;;;;;;33.17;19.77;;;;;;;;;;4941476;29;20190;-90
2021/03/15 00:54:25;;;;;;;32.87;18.73;;;;;;;;;;4941790;29;20171;-90
2021/03/15 00:56:50;;;;;;;30.23;18.77;;;;;;;;;;4958478;29;20234;-90
2021/03/15 00:59:16;;;;;;;28.10;17.77;;;;;;;;;;4958888;28;20210;-89
2021/03/15 01:01:43;;;;;;;28.90;17.70;;;;;;;;;;4941071;29;20188;-90
2021/03/15 01:04:09;;;;;;;31.10;18.80;;;;;;;;;;4941354;29;20250;-91
2021/03/15 01:06:35;;;;;;;37.23;23.73;;;;;;;;;;4958137;28;20650;-91
2021/03/15 01:09:01;;;;;;;37.93;23.67;;;;;;;;;;4958620;28;20672;-91
2021/03/15 01:11:27;;;;;;;37.30;22.13;;;;;;;;;;4941220;29;20179;-90
2021/03/15 01:13:53;;;;;;;35.77;21.30;;;;;;;;;;4941040;29;20178;-90
2021/03/15 01:16:18;;;;;;;33.97;20.53;;;;;;;;;;4958206;29;20246;-91
2021/03/15 01:18:43;;;;;;;34.80;20.47;;;;;;;;;;4940762;29;20680;-90
2021/03/15 01:21:09;;;;;;;37.37;21.17;;;;;;;;;;4941305;29;20183;-91
2021/03/15 01:23:35;;;;;;;36.27;21.17;;;;;;;;;;4957871;28;20646;-91
2021/03/15 01:26:00;;;;;;;30.97;19.47;;;;;;;;;;4957926;28;20203;-90
2021/03/15 01:28:25;;;;;;;31.23;18.37;;;;;;;;;;4957844;29;20203;-90
2021/03/15 01:30:51;;;;;;;31.57;19.13;;;;;;;;;;4941088;29;20642;-91
2021/03/15 01:33:16;;;;;;;29.93;17.63;;;;;;;;;;4957834;29;20175;-90
2021/03/15 01:35:41;;;;;;;28.60;17.30;;;;;;;;;;4940802;29;20171;-91
2021/03/15 01:38:07;;;;;;;31.60;18.57;;;;;;;;;;4957769;29;20270;-92
2021/03/15 01:40:34;;;;;;;33.73;22.00;;;;;;;;;;4958085;28;20175;-92
2021/03/15 01:42:59;;;;;;;35.73;21.40;;;;;;;;;;4940934;29;20516;-93
2021/03/15 01:45:24;;;;;;;36.70;23.00;;;;;;;;;;4957995;29;20182;-91
2021/03/15 01:47:50;;;;;;;33.27;20.83;;;;;;;;;;4957712;28;20250;-92
2021/03/15 01:50:16;;;;;;;33.70;19.80;;;;;;;;;;4940707;29;20549;-92
2021/03/15 01:52:41;;;;;;;31.40;19.53;;;;;;;;;;4940762;29;20183;-92
2021/03/15 01:55:09;;;;;;;32.80;20.77;;;;;;;;;;4940592;29;20743;-89
2021/03/15 01:57:35;;;;;;;37.97;21.87;;;;;;;;;;4940514;29;20184;-89
2021/03/15 02:00:01;;;;;;;35.80;21.70;;;;;;;;;;4957898;29;20179;-90
2021/03/15 02:02:26;;;;;;;40.27;24.10;;;;;;;;;;4957220;29;20504;-89
2021/03/15 02:04:52;;;;;;;45.77;27.70;;;;;;;;;;4941070;29;20182;-91
2021/03/15 02:07:18;;;;;;;41.77;23.87;;;;;;;;;;4940064;29;20681;-91
2021/03/15 02:09:43;;;;;;;34.80;21.30;;;;;;;;;;4940269;29;20253;-91
2021/03/15 02:12:14;;;;;;;32.47;18.73;;;;;;;;;;4940151;29;20183;-91
2021/03/15 02:14:45;;;;;;;35.80;20.53;;;;;;;;;;4957627;29;20626;-91
2021/03/15 02:17:24;;;;;;;34.67;20.00;;;;;;;;;;4940575;29;20677;-91
2021/03/15 02:20:25;;;;;;;28.27;18.57;;;;;;;;;;4939848;29;20265;-90
2021/03/15 02:22:53;;;;;;;35.67;19.20;;;;;;;;;;4879432;29;20280;-93
2021/03/15 02:25:31;;;;;;;31.23;19.57;;;;;;;;;;4925455;29;20323;-93
2021/03/15 02:28:08;;;;;;;32.90;18.77;;;;;;;;;;4940068;29;20222;-93
2021/03/15 02:30:48;;;;;;;29.90;18.33;;;;;;;;;;4939979;29;20261;-93
2021/03/15 02:33:14;;;;;;;30.63;18.90;;;;;;;;;;4940954;29;20270;-92
2021/03/15 02:35:39;;;;;;;30.80;19.40;;;;;;;;;;4939388;29;20701;-93
2021/03/15 02:38:12;;;;;;;32.47;19.63;;;;;;;;;;4939962;29;20187;-92
2021/03/15 02:40:43;;;;;;;33.60;19.40;;;;;;;;;;4939782;29;20187;-92
2021/03/15 02:43:18;;;;;;;30.27;19.07;;;;;;;;;;4939798;29;20262;-93
2021/03/15 02:45:44;;;;;;;31.77;20.37;;;;;;;;;;4940247;29;20620;-92
2021/03/15 02:48:11;;;;;;;29.80;18.30;;;;;;;;;;4939658;29;20215;-92
2021/03/15 02:50:37;;;;;;;25.20;16.47;;;;;;;;;;4940250;29;20203;-91
2021/03/15 02:53:03;;;;;;;24.23;15.27;;;;;;;;;;4939556;29;20223;-90
2021/03/15 02:55:29;;;;;;;26.17;14.70;;;;;;;;;;4956592;29;20183;-90
2021/03/15 02:57:55;;;;;;;20.83;14.13;;;;;;;;;;4956318;28;20175;-90
2021/03/15 03:00:21;;;;;;;24.00;14.87;;;;;;;;;;4939280;29;20198;-90
2021/03/15 03:02:47;;;;;;;24.30;13.97;;;;;;;;;;4939255;29;20234;-91
2021/03/15 03:05:14;;;;;;;23.20;14.30;;;;;;;;;;4956444;29;20176;-90
2021/03/15 03:07:44;;;;;;;26.43;14.93;;;;;;;;;;4938781;29;20278;-91
2021/03/15 03:10:10;;;;;;;25.63;15.57;;;;;;;;;;4939805;29;20175;-90
2021/03/15 03:12:36;;;;;;;26.93;15.67;;;;;;;;;;4955986;29;20629;-90
2021/03/15 03:15:05;;;;;;;27.10;16.17;;;;;;;;;;4938990;29;20179;-90
2021/03/15 03:17:34;;;;;;;24.83;15.50;;;;;;;;;;4956246;29;20171;-91
2021/03/15 03:20:00;;;;;;;24.70;15.13;;;;;;;;;;4939006;29;20186;-91
2021/03/15 03:22:25;;;;;;;27.50;16.37;;;;;;;;;;4955822;29;20179;-91
2021/03/15 03:24:51;;;;;;;29.83;17.60;;;;;;;;;;4938812;29;20511;-91
2021/03/15 03:27:16;;;;;;;28.13;17.53;;;;;;;;;;4938849;29;20230;-90
2021/03/15 03:29:43;;;;;;;27.40;16.37;;;;;;;;;;4938814;29;20223;-89
2021/03/15 03:32:09;;;;;;;25.67;15.90;;;;;;;;;;4939738;29;20183;-89
2021/03/15 03:34:34;;;;;;;26.93;15.63;;;;;;;;;;4939000;29;20629;-90
2021/03/15 03:36:59;;;;;;;25.33;15.50;;;;;;;;;;4956216;28;20205;-89
2021/03/15 03:39:24;;;;;;;24.73;16.20;;;;;;;;;;4955916;28;20184;-89
2021/03/15 03:41:50;;;;;;;24.57;15.67;;;;;;;;;;4956131;28;20179;-89
2021/03/15 03:44:16;;;;;;;27.83;16.17;;;;;;;;;;4938675;29;20714;-91
2021/03/15 03:46:41;;;;;;;24.23;16.03;;;;;;;;;;4955926;29;20234;-91
2021/03/15 03:49:08;;;;;;;26.23;16.03;;;;;;;;;;4937845;29;20555;-91
2021/03/15 03:51:39;;;;;;;24.40;15.57;;;;;;;;;;4938586;29;20186;-92
2021/03/15 03:54:34;;;;;;;27.93;15.40;;;;;;;;;;4939382;29;20186;-92
2021/03/15 03:57:05;;;;;;;25.47;14.70;;;;;;;;;;4922785;29;20191;-91
2021/03/15 03:59:32;;;;;;;23.93;14.33;;;;;;;;;;4939022;29;20229;-89
2021/03/15 04:01:59;;;;;;;22.33;14.37;;;;;;;;;;4955464;29;20181;-89
2021/03/15 04:04:25;;;;;;;22.47;14.57;;;;;;;;;;4955533;29;20171;-91
2021/03/15 04:06:51;;;;;;;21.77;14.10;;;;;;;;;;4955400;29;20701;-91
2021/03/15 04:09:24;;;;;;;26.57;14.93;;;;;;;;;;4938430;29;20749;-90
2021/03/15 04:11:49;;;;;;;25.80;15.30;;;;;;;;;;4938174;29;20183;-90
2021/03/15 04:14:35;;;;;;;25.97;14.93;;;;;;;;;;4938927;29;20182;-91
2021/03/15 04:17:01;;;;;;;24.63;14.80;;;;;;;;;;4937592;29;20190;-91
2021/03/15 04:19:30;;;;;;;24.80;15.00;;;;;;;;;;4938446;29;20203;-91
2021/03/15 04:21:58;;;;;;;24.00;15.57;;;;;;;;;;4938904;29;20274;-92
2021/03/15 04:24:24;;;;;;;28.63;16.70;;;;;;;;;;4938325;29;20187;-93
2021/03/15 04:26:50;;;;;;;28.00;16.90;;;;;;;;;;4938495;29;20178;-92
2021/03/15 04:29:15;;;;;;;26.43;16.33;;;;;;;;;;4938415;29;20207;-92
2021/03/15 04:31:41;;;;;;;29.43;17.47;;;;;;;;;;4938300;29;20233;-92
2021/03/15 04:34:07;;;;;;;35.93;19.60;;;;;;;;;;4938397;29;20186;-92
2021/03/15 04:36:32;;;;;;;31.67;19.57;;;;;;;;;;4938244;29;20195;-92
2021/03/15 04:38:59;;;;;;;24.47;15.60;;;;;;;;;;4938352;29;20187;-92
2021/03/15 04:41:24;;;;;;;26.83;15.90;;;;;;;;;;4938503;29;20183;-93
2021/03/15 04:43:50;;;;;;;24.03;14.97;;;;;;;;;;4938365;29;20180;-93
2021/03/15 04:46:16;;;;;;;25.33;16.10;;;;;;;;;;4938481;29;20529;-93
2021/03/15 04:48:41;;;;;;;24.87;16.30;;;;;;;;;;4938285;29;20270;-93
2021/03/15 04:51:07;;;;;;;23.93;15.47;;;;;;;;;;4938330;29;20179;-93
2021/03/15 04:53:33;;;;;;;29.43;19.13;;;;;;;;;;4938319;29;20235;-93
2021/03/15 04:56:03;;;;;;;42.03;23.63;;;;;;;;;;4938061;29;20187;-92
2021/03/15 04:58:30;;;;;;;31.57;19.60;;;;;;;;;;4955420;28;20171;-92
2021/03/15 05:00:56;;;;;;;28.43;17.03;;;;;;;;;;4941619;29;20189;-92
2021/03/15 05:03:22;;;;;;;30.87;18.93;;;;;;;;;;4941488;29;20179;-93
2021/03/15 05:05:48;;;;;;;26.40;16.50;;;;;;;;;;4941660;29;20696;-91
2021/03/15 05:08:15;;;;;;;46.57;26.57;;;;;;;;;;4940941;29;20238;-91
2021/03/15 05:10:41;;;;;;;39.97;22.33;;;;;;;;;;4941357;29;20210;-92
2021/03/15 05:13:07;;;;;;;30.07;17.50;;;;;;;;;;4941419;29;20685;-93
2021/03/15 05:15:32;;;;;;;32.43;18.17;;;;;;;;;;4941540;29;20184;-92
2021/03/15 05:17:58;;;;;;;43.00;24.63;;;;;;;;;;4941454;29;20234;-92
2021/03/15 05:20:24;;;;;;;46.83;27.00;;;;;;;;;;4958076;29;20644;-91
2021/03/15 05:22:50;;;;;;;36.13;22.20;;;;;;;;;;4941018;29;20175;-91
2021/03/15 05:25:17;;;;;;;34.70;22.23;;;;;;;;;;4941113;29;20184;-90
2021/03/15 05:27:43;;;;;;;38.87;21.87;;;;;;;;;;4941116;29;20543;-91
2021/03/15 05:30:12;;;;;;;42.70;23.37;;;;;;;;;;4940844;29;20183;-91
2021/03/15 05:32:40;;;;;;;34.93;21.13;;;;;;;;;;4961595;28;20171;-90
2021/03/15 05:35:06;;;;;;;32.07;19.37;;;;;;;;;;4950110;29;20175;-91
2021/03/15 05:37:31;;;;;;;33.83;18.57;;;;;;;;;;4952209;29;20529;-91
2021/03/15 05:39:56;;;;;;;45.03;27.00;;;;;;;;;;4951249;29;20179;-90
2021/03/15 05:42:22;;;;;;;70.50;42.47;;;;;;;;;;4963493;28;20175;-91
2021/03/15 05:44:47;;;;;;;40.77;23.70;;;;;;;;;;4958122;29;20235;-91
2021/03/15 05:47:15;;;;;;;40.30;27.30;;;;;;;;;;4958249;29;20171;-93
2021/03/15 05:50:04;;;;;;;47.10;31.37;;;;;;;;;;4941100;29;20245;-93
2021/03/15 05:52:48;;;;;;;34.27;20.30;;;;;;;;;;4931278;29;20189;-91
2021/03/15 05:55:13;;;;;;;32.60;18.43;;;;;;;;;;4957743;29;20640;-91
2021/03/15 05:57:44;;;;;;;32.83;19.67;;;;;;;;;;4957916;28;20212;-90
2021/03/15 06:00:46;;;;;;;33.13;20.60;;;;;;;;;;4941184;29;20184;-90
2021/03/15 06:03:14;;;;;;;52.00;36.23;;;;;;;;;;4864471;29;20609;-90
2021/03/15 06:05:43;;;;;;;34.23;21.07;;;;;;;;;;4926307;29;20203;-90
2021/03/15 06:08:29;;;;;;;33.87;20.07;;;;;;;;;;4957330;29;20674;-90
2021/03/15 06:11:03;;;;;;;36.13;19.07;;;;;;;;;;4955037;28;20630;-90
2021/03/15 06:13:30;;;;;;;37.83;23.73;;;;;;;;;;4957738;29;20179;-90
2021/03/15 06:15:56;;;;;;;30.00;21.27;;;;;;;;;;4940101;29;20179;-89
2021/03/15 06:18:21;;;;;;;32.43;18.60;;;;;;;;;;4956877;29;20179;-90
2021/03/15 06:20:50;;;;;;;43.37;28.50;;;;;;;;;;4940104;29;20581;-90
2021/03/15 06:23:16;;;;;;;40.80;27.50;;;;;;;;;;4957098;28;20171;-90
2021/03/15 06:25:41;;;;;;;29.57;19.87;;;;;;;;;;4956838;29;20179;-90
2021/03/15 06:28:07;;;;;;;38.27;26.07;;;;;;;;;;4957014;28;20213;-90
2021/03/15 06:30:32;;;;;;;30.53;18.67;;;;;;;;;;4940558;29;20175;-90
2021/03/15 06:32:59;;;;;;;31.33;18.30;;;;;;;;;;4939420;29;20171;-90
2021/03/15 06:35:33;;;;;;;30.77;19.40;;;;;;;;;;4956884;29;20622;-90
2021/03/15 06:37:59;;;;;;;27.83;17.93;;;;;;;;;;4956875;29;20170;-90
2021/03/15 06:40:25;;;;;;;28.87;18.67;;;;;;;;;;4956962;29;20183;-90
2021/03/15 06:42:51;;;;;;;28.57;21.53;;;;;;;;;;4956800;29;20210;-91
2021/03/15 06:45:19;;;;;;;32.03;24.50;;;;;;;;;;4939791;29;20273;-90
2021/03/15 06:47:44;;;;;;;25.03;18.30;;;;;;;;;;4939414;29;20180;-91
2021/03/15 06:50:10;;;;;;;23.50;18.87;;;;;;;;;;4940053;29;20186;-91
2021/03/15 06:52:51;;;;;;;21.87;16.27;;;;;;;;;;4956645;28;20175;-91
2021/03/15 06:55:17;;;;;;;21.40;17.17;;;;;;;;;;4957125;29;20167;-90
2021/03/15 06:57:42;;;;;;;21.80;16.50;;;;;;;;;;4956443;29;20184;-90
2021/03/15 07:00:08;;;;;;;22.77;17.50;;;;;;;;;;4956544;29;20320;-91
2021/03/15 07:02:33;;;;;;;24.50;18.17;;;;;;;;;;4956413;28;20526;-90
2021/03/15 07:05:09;;;;;;;25.30;17.80;;;;;;;;;;4956702;28;20287;-90
2021/03/15 07:07:36;;;;;;;28.57;21.73;;;;;;;;;;4956263;29;20241;-90
2021/03/15 07:10:01;;;;;;;23.10;16.07;;;;;;;;;;4956440;29;20168;-90
2021/03/15 07:12:27;;;;;;;20.03;17.43;;;;;;;;;;4956294;29;20175;-91
2021/03/15 07:14:53;;;;;;;22.63;16.10;;;;;;;;;;4956550;29;20167;-90
2021/03/15 07:17:22;;;;;;;47.63;42.43;;;;;;;;;;4956195;29;20234;-90
2021/03/15 07:19:47;;;;;;;37.47;30.90;;;;;;;;;;4956096;28;20183;-90
2021/03/15 07:22:23;;;;;;;22.10;18.77;;;;;;;;;;4955898;28;20178;-90
2021/03/15 07:25:03;;;;;;;18.37;14.57;;;;;;;;;;4956106;28;20179;-90
2021/03/15 07:27:29;;;;;;;18.00;16.10;;;;;;;;;;4956348;28;20182;-90
2021/03/15 07:29:56;;;;;;;18.07;15.03;;;;;;;;;;4955639;28;20215;-90
2021/03/15 07:32:38;;;;;;;27.50;24.47;;;;;;;;;;4955999;29;20261;-90
2021/03/15 07:35:18;;;;;;;60.57;36.93;;;;;;;;;;4955752;29;20179;-90
2021/03/15 07:37:44;;;;;;;17.23;13.67;;;;;;;;;;4955711;29;20198;-90
2021/03/15 07:40:09;;;;;;;15.67;13.93;;;;;;;;;;4956222;29;20171;-90
2021/03/15 07:42:35;;;;;;;16.03;14.43;;;;;;;;;;4955878;28;20174;-89
2021/03/15 07:45:00;;;;;;;16.10;14.50;;;;;;;;;;4956152;28;20179;-89
2021/03/15 07:47:27;;;;;;;22.87;20.10;;;;;;;;;;4957386;28;20534;-88
2021/03/15 07:49:57;;;;;;;15.17;13.27;;;;;;;;;;4957659;28;20577;-89
2021/03/15 07:52:38;;;;;;;14.50;12.93;;;;;;;;;;4972437;28;20224;-88
2021/03/15 07:55:03;;;;;;;15.43;13.40;;;;;;;;;;4975614;28;20166;-89
2021/03/15 07:57:29;;;;;;;15.13;13.50;;;;;;;;;;4974664;28;20174;-89
2021/03/15 07:59:58;;;;;;;27.03;20.10;;;;;;;;;;4974651;28;20179;-89
2021/03/15 08:02:24;;;;;;;26.33;19.93;;;;;;;;;;4975199;28;20175;-89
2021/03/15 08:04:50;;;;;;;22.40;19.00;;;;;;;;;;4957465;28;20633;-89
2021/03/15 08:07:16;;;;;;;22.10;19.70;;;;;;;;;;4972972;28;20214;-90
2021/03/15 08:09:45;;;;;;;14.53;13.03;;;;;;;;;;4964226;28;20230;-90
2021/03/15 08:12:11;;;;;;;17.60;15.87;;;;;;;;;;4963501;28;20206;-89
2021/03/15 08:14:38;;;;;;;13.00;10.67;;;;;;;;;;4955537;29;20180;-90
2021/03/15 08:17:04;;;;;;;15.47;12.70;;;;;;;;;;4955333;28;20195;-90
2021/03/15 08:19:35;;;;;;;16.83;14.23;;;;;;;;;;4938298;29;20183;-89
2021/03/15 08:22:01;;;;;;;16.43;14.67;;;;;;;;;;4955525;28;20179;-87
2021/03/15 08:24:26;;;;;;;17.80;15.33;;;;;;;;;;4955210;28;20182;-87
2021/03/15 08:26:52;;;;;;;13.20;11.80;;;;;;;;;;4955505;28;20171;-86
2021/03/15 08:29:17;;;;;;;13.67;11.17;;;;;;;;;;4955326;29;20286;-87
2021/03/15 08:31:46;;;;;;;19.63;13.83;;;;;;;;;;4955390;29;20175;-87
2021/03/15 08:34:13;;;;;;;14.60;12.07;;;;;;;;;;4956256;28;20532;-88
2021/03/15 08:36:45;;;;;;;14.43;12.97;;;;;;;;;;4959874;28;20494;-87
2021/03/15 08:39:25;;;;;;;14.23;12.37;;;;;;;;;;4959349;29;20190;-87
2021/03/15 08:42:10;;;;;;;14.17;12.57;;;;;;;;;;4958701;28;20167;-87
2021/03/15 08:44:37;;;;;;;13.97;10.77;;;;;;;;;;4959057;29;20175;-87
2021/03/15 08:47:02;;;;;;;15.70;11.90;;;;;;;;;;4941592;29;20187;-87
2021/03/15 08:49:31;;;;;;;16.70;11.70;;;;;;;;;;4958475;28;20229;-87
2021/03/15 08:51:56;;;;;;;13.90;10.70;;;;;;;;;;4960046;28;20265;-87
2021/03/15 08:54:41;;;;;;;14.03;11.07;;;;;;;;;;4977791;28;20692;-87
2021/03/15 08:57:07;;;;;;;12.90;11.50;;;;;;;;;;4978103;28;20178;-88
2021/03/15 08:59:33;;;;;;;16.47;13.53;;;;;;;;;;4977943;28;20182;-87
2021/03/15 09:02:03;;;;;;;16.30;14.60;;;;;;;;;;4977912;28;20181;-88
2021/03/15 09:04:28;;;;;;;16.10;13.37;;;;;;;;;;4977834;28;20310;-87
2021/03/15 09:06:54;;;;;;;11.40;9.93;;;;;;;;;;4977509;28;20281;-87
2021/03/15 09:09:27;;;;;;;13.37;11.97;;;;;;;;;;4977710;28;20684;-87
2021/03/15 09:11:53;;;;;;;25.33;22.67;;;;;;;;;;4977459;28;20576;-87
2021/03/15 09:14:30;;;;;;;16.47;14.77;;;;;;;;;;4977508;28;20183;-87
2021/03/15 09:17:13;;;;;;;13.33;11.93;;;;;;;;;;4975748;28;20180;-87
2021/03/15 09:19:38;;;;;;;11.00;8.87;;;;;;;;;;4975570;28;20178;-87
2021/03/15 09:22:21;;;;;;;17.70;15.80;;;;;;;;;;4971343;28;20269;-87
2021/03/15 09:24:46;;;;;;;11.93;10.73;;;;;;;;;;4942535;28;20194;-89
2021/03/15 09:27:11;;;;;;;14.73;12.10;;;;;;;;;;4960105;28;20194;-88
2021/03/15 09:29:38;;;;;;;16.20;12.20;;;;;;;;;;4977519;28;20202;-89
2021/03/15 09:32:11;;;;;;;14.13;11.57;;;;;;;;;;4976830;28;20677;-88
2021/03/15 09:34:38;;;;;;;14.50;12.43;;;;;;;;;;4976169;28;20174;-88
2021/03/15 09:37:04;;;;;;;17.90;13.30;;;;;;;;;;4975155;28;20178;-87
2021/03/15 09:39:31;;;;;;;14.83;11.20;;;;;;;;;;4974655;28;20269;-87
2021/03/15 09:41:57;;;;;;;15.20;11.60;;;;;;;;;;4975720;28;20178;-88
2021/03/15 09:44:23;;;;;;;14.07;11.97;;;;;;;;;;4975437;28;20178;-87
2021/03/15 09:46:50;;;;;;;10.83;9.13;;;;;;;;;;4976381;28;20214;-87
2021/03/15 09:49:30;;;;;;;26.53;17.10;;;;;;;;;;4977126;28;20206;-88
2021/03/15 09:52:07;;;;;;;15.63;10.97;;;;;;;;;;4977061;28;20159;-87
2021/03/15 09:54:41;;;;;;;18.87;14.53;;;;;;;;;;4977003;28;20181;-86
2021/03/15 09:57:07;;;;;;;43.83;28.00;;;;;;;;;;4974744;28;20182;-87
2021/03/15 09:59:32;;;;;;;20.23;15.00;;;;;;;;;;4976701;28;20193;-86
2021/03/15 10:02:00;;;;;;;16.43;14.67;;;;;;;;;;4976713;28;20172;-86
2021/03/15 10:04:33;;;;;;;12.70;11.30;;;;;;;;;;4976854;28;20522;-86
2021/03/15 10:07:00;;;;;;;16.80;13.40;;;;;;;;;;4959248;28;20548;-85
2021/03/15 10:09:25;;;;;;;19.13;17.10;;;;;;;;;;4976198;28;20258;-85
2021/03/15 10:11:51;;;;;;;13.70;9.77;;;;;;;;;;4976629;28;20614;-86
2021/03/15 10:14:16;;;;;;;13.00;10.50;;;;;;;;;;4958349;28;20183;-86
2021/03/15 10:16:52;;;;;;;10.10;8.97;;;;;;;;;;4959029;28;20316;-87
2021/03/15 10:19:21;;;;;;;12.43;11.00;;;;;;;;;;4976432;28;20667;-86
2021/03/15 10:21:46;;;;;;;27.73;22.53;;;;;;;;;;4958676;28;20543;-86
2021/03/15 10:24:11;;;;;;;14.90;11.80;;;;;;;;;;4975160;28;20265;-86
2021/03/15 10:26:37;;;;;;;18.07;12.40;;;;;;;;;;4974956;28;20262;-86
2021/03/15 10:29:05;;;;;;;13.07;9.40;;;;;;;;;;4957029;28;20568;-86
2021/03/15 10:31:30;;;;;;;17.60;11.70;;;;;;;;;;4975611;28;20178;-86
2021/03/15 10:33:56;;;;;;;9.23;7.43;;;;;;;;;;4975448;28;20181;-86
2021/03/15 10:36:22;;;;;;;11.63;9.50;;;;;;;;;;4949394;28;20183;-87
2021/03/15 10:38:48;;;;;;;14.20;11.47;;;;;;;;;;4969444;28;20650;-86
2021/03/15 10:41:14;;;;;;;16.10;11.13;;;;;;;;;;4970316;28;20186;-86
2021/03/15 10:43:41;;;;;;;15.13;10.00;;;;;;;;;;4975994;28;20178;-86
2021/03/15 10:46:29;;;;;;;16.83;13.37;;;;;;;;;;4975920;28;20171;-86
2021/03/15 10:48:55;;;;;;;9.50;8.30;;;;;;;;;;4975875;28;20222;-86
2021/03/15 10:51:21;;;;;;;10.40;8.37;;;;;;;;;;4974758;28;20190;-85
2021/03/15 10:53:48;;;;;;;10.27;8.27;;;;;;;;;;4954734;28;20179;-86
2021/03/15 10:56:20;;;;;;;11.83;8.90;;;;;;;;;;4975104;28;20245;-86
2021/03/15 10:58:45;;;;;;;9.63;8.10;;;;;;;;;;4975301;28;20645;-85
2021/03/15 11:01:11;;;;;;;12.10;8.40;;;;;;;;;;4975080;28;20179;-86
2021/03/15 11:03:37;;;;;;;10.97;7.87;;;;;;;;;;4975409;28;20692;-86
2021/03/15 11:06:08;;;;;;;11.13;8.10;;;;;;;;;;4975229;28;20502;-86
2021/03/15 11:08:37;;;;;;;15.57;9.53;;;;;;;;;;4969958;28;20559;-86
2021/03/15 11:11:16;;;;;;;36.27;20.07;;;;;;;;;;4939051;29;20193;-85
2021/03/15 11:13:45;;;;;;;11.80;8.80;;;;;;;;;;4966290;28;20185;-86
2021/03/15 11:16:17;;;;;;;11.80;8.70;;;;;;;;;;4957873;28;20237;-86
2021/03/15 11:18:42;;;;;;;11.90;8.57;;;;;;;;;;4975581;28;20183;-86
2021/03/15 11:21:11;;;;;;;19.57;12.40;;;;;;;;;;4975133;28;20514;-86
2021/03/15 11:23:38;;;;;;;9.33;7.60;;;;;;;;;;4976089;28;20185;-86
2021/03/15 11:26:11;;;;;;;15.00;9.67;;;;;;;;;;4975404;28;20647;-86
2021/03/15 11:28:36;;;;;;;10.47;7.90;;;;;;;;;;4958256;28;20576;-85
2021/03/15 11:31:01;;;;;;;15.43;9.13;;;;;;;;;;4975391;28;20175;-85
2021/03/15 11:33:30;;;;;;;16.77;11.17;;;;;;;;;;4974343;28;20805;-84
2021/03/15 11:35:58;;;;;;;11.67;8.60;;;;;;;;;;4974459;28;20257;-86
2021/03/15 11:38:24;;;;;;;15.20;9.90;;;;;;;;;;4975757;28;20181;-86
2021/03/15 11:40:50;;;;;;;10.10;8.47;;;;;;;;;;4975126;28;20622;-85
2021/03/15 11:43:15;;;;;;;12.00;9.50;;;;;;;;;;4974158;28;20265;-85
2021/03/15 11:45:40;;;;;;;13.97;9.27;;;;;;;;;;4974843;28;20308;-85
2021/03/15 11:48:06;;;;;;;23.87;15.87;;;;;;;;;;4974640;28;20202;-84
2021/03/15 11:50:32;;;;;;;41.70;22.37;;;;;;;;;;4957604;28;20186;-85
2021/03/15 11:52:58;;;;;;;17.10;11.63;;;;;;;;;;4974611;28;20182;-86
2021/03/15 11:55:24;;;;;;;20.13;16.73;;;;;;;;;;4975155;28;20181;-85
2021/03/15 11:57:49;;;;;;;15.17;9.80;;;;;;;;;;4974674;28;20181;-86
2021/03/15 12:00:18;;;;;;;11.87;8.53;;;;;;;;;;4974816;28;20177;-85
2021/03/15 12:02:43;;;;;;;15.73;10.93;;;;;;;;;;4973608;28;20201;-84
2021/03/15 12:05:10;;;;;;;10.17;8.27;;;;;;;;;;4973856;28;20625;-84
2021/03/15 12:07:36;;;;;;;9.00;7.80;;;;;;;;;;4980790;28;20608;-84
2021/03/15 12:10:01;;;;;;;8.67;7.10;;;;;;;;;;4996898;28;20239;-84
2021/03/15 12:12:27;;;;;;;11.77;7.93;;;;;;;;;;4982595;28;20174;-84
2021/03/15 12:14:53;;;;;;;7.03;6.33;;;;;;;;;;4977768;28;20170;-84
2021/03/15 12:17:18;;;;;;;8.17;6.50;;;;;;;;;;4978613;28;20171;-85
2021/03/15 12:19:44;;;;;;;12.07;8.03;;;;;;;;;;4992578;28;20174;-84
2021/03/15 12:22:09;;;;;;;7.20;6.20;;;;;;;;;;4997844;28;20501;-84
2021/03/15 12:24:34;;;;;;;8.60;6.87;;;;;;;;;;4973715;28;20664;-84
2021/03/15 12:26:59;;;;;;;8.40;6.30;;;;;;;;;;4975611;28;20175;-84
2021/03/15 12:29:25;;;;;;;11.27;7.10;;;;;;;;;;4978037;28;20675;-84
2021/03/15 12:31:50;;;;;;;8.33;6.97;;;;;;;;;;4977888;28;20198;-85
2021/03/15 12:34:18;;;;;;;8.17;7.00;;;;;;;;;;4978678;28;20175;-85
2021/03/15 12:36:44;;;;;;;10.40;6.90;;;;;;;;;;4978052;28;20167;-84
2021/03/15 12:39:09;;;;;;;47.07;23.30;;;;;;;;;;4977930;28;20248;-84
2021/03/15 12:41:35;;;;;;;10.43;7.40;;;;;;;;;;4978171;28;20174;-84
2021/03/15 12:44:00;;;;;;;9.50;7.30;;;;;;;;;;4977669;28;20182;-84
2021/03/15 12:46:26;;;;;;;13.57;8.17;;;;;;;;;;4960686;28;20309;-85
2021/03/15 12:48:51;;;;;;;5.83;5.20;;;;;;;;;;4978257;28;20207;-85
2021/03/15 12:51:16;;;;;;;6.67;5.60;;;;;;;;;;4978004;28;20261;-85
2021/03/15 12:53:41;;;;;;;12.50;8.07;;;;;;;;;;4960815;28;20273;-84
2021/03/15 12:56:07;;;;;;;9.10;6.00;;;;;;;;;;4977918;28;20174;-85
2021/03/15 12:58:32;;;;;;;6.30;5.60;;;;;;;;;;4977589;28;20529;-84
2021/03/15 13:00:58;;;;;;;6.63;5.73;;;;;;;;;;4977589;28;20657;-85
2021/03/15 13:03:23;;;;;;;8.70;6.80;;;;;;;;;;4977680;28;20167;-85
2021/03/15 13:05:49;;;;;;;76.90;33.47;;;;;;;;;;4959967;28;20181;-86
2021/03/15 13:08:14;;;;;;;10.80;7.27;;;;;;;;;;4977449;28;20262;-86
2021/03/15 13:10:40;;;;;;;8.33;5.70;;;;;;;;;;4978049;28;20174;-86
2021/03/15 13:13:05;;;;;;;7.87;6.00;;;;;;;;;;4977201;28;20182;-85
2021/03/15 13:15:31;;;;;;;6.50;5.07;;;;;;;;;;4977579;28;20182;-85
2021/03/15 13:17:58;;;;;;;8.17;5.87;;;;;;;;;;4977709;28;20170;-85
2021/03/15 13:20:24;;;;;;;7.30;5.33;;;;;;;;;;4959648;28;20530;-84
2021/03/15 13:22:50;;;;;;;8.30;5.33;;;;;;;;;;4977708;28;20182;-83
2021/03/15 13:25:15;;;;;;;7.47;5.87;;;;;;;;;;4972071;28;20178;-84
2021/03/15 13:27:41;;;;;;;7.43;6.13;;;;;;;;;;4977442;28;20250;-85
2021/03/15 13:30:08;;;;;;;9.77;6.30;;;;;;;;;;4977261;28;20214;-85
2021/03/15 13:32:34;;;;;;;7.67;5.60;;;;;;;;;;4959792;28;20196;-84
2021/03/15 13:34:59;;;;;;;14.30;7.73;;;;;;;;;;4976678;28;20166;-84
2021/03/15 13:37:24;;;;;;;12.67;8.07;;;;;;;;;;4975267;28;20206;-84
2021/03/15 13:39:50;;;;;;;8.83;6.93;;;;;;;;;;4973945;28;20543;-84
2021/03/15 13:42:15;;;;;;;14.07;8.60;;;;;;;;;;4974486;28;20201;-84
2021/03/15 13:44:40;;;;;;;9.57;7.00;;;;;;;;;;4975042;28;20986;-84
2021/03/15 13:47:06;;;;;;;9.67;6.77;;;;;;;;;;4975212;28;20229;-84
2021/03/15 13:49:31;;;;;;;13.50;8.33;;;;;;;;;;4975208;28;20234;-84
2021/03/15 13:51:56;;;;;;;12.60;8.30;;;;;;;;;;4975159;28;20179;-85
2021/03/15 13:54:23;;;;;;;11.07;7.97;;;;;;;;;;4957762;28;20193;-84
2021/03/15 13:56:48;;;;;;;41.00;20.87;;;;;;;;;;4957504;28;20217;-84
2021/03/15 13:59:13;;;;;;;20.33;11.20;;;;;;;;;;4973766;28;20206;-84
2021/03/15 14:01:39;;;;;;;19.53;10.83;;;;;;;;;;4976698;28;20175;-83
2021/03/15 14:04:08;;;;;;;17.13;12.23;;;;;;;;;;4959275;28;20187;-84
2021/03/15 14:06:33;;;;;;;13.30;10.00;;;;;;;;;;4977056;28;20174;-84
2021/03/15 14:08:58;;;;;;;11.77;9.10;;;;;;;;;;4976540;28;20237;-84
2021/03/15 14:11:23;;;;;;;26.70;22.23;;;;;;;;;;4977301;28;20170;-84
2021/03/15 14:13:49;;;;;;;19.10;14.40;;;;;;;;;;4976449;28;20178;-84
2021/03/15 14:16:17;;;;;;;12.13;8.40;;;;;;;;;;4973491;28;20264;-83
2021/03/15 14:18:43;;;;;;;11.30;8.00;;;;;;;;;;4976339;28;20178;-84
2021/03/15 14:21:12;;;;;;;8.83;7.53;;;;;;;;;;4959478;28;20191;-83
2021/03/15 14:23:37;;;;;;;19.00;12.33;;;;;;;;;;4976075;28;20174;-84